createdAt,value
2022-08-16T00:02:56.101Z,99712.28
2022-08-16T00:05:57.998Z,99715.13
2022-08-16T00:08:59.489Z,99716.66
2022-08-16T00:12:01.377Z,99717.50
2022-08-16T00:15:11.771Z,99717.50
2022-08-16T00:18:16.002Z,99713.41
2022-08-16T00:21:18.194Z,99719.03
2022-08-16T00:24:32.434Z,99728.34
2022-08-16T00:27:34.404Z,99718.19
2022-08-16T00:30:36.354Z,99725.53
2022-08-16T00:33:40.880Z,99721.56
2022-08-16T00:36:55.895Z,99724.50
2022-08-16T00:39:58.848Z,99736.81
2022-08-16T00:43:00.757Z,99732.69
2022-08-16T00:46:33.102Z,99730.28
2022-08-16T00:49:44.454Z,99731.28
2022-08-16T00:52:51.318Z,99735.38
2022-08-16T00:55:55.487Z,99741.75
2022-08-16T00:58:58.177Z,99741.88
2022-08-16T01:02:30.112Z,99732.69
2022-08-16T01:05:28.503Z,99737.47
2022-08-16T01:08:36.167Z,99742.13
2022-08-16T01:11:53.836Z,99740.38
2022-08-16T01:14:59.278Z,99742.38
2022-08-16T01:18:04.220Z,99743.34
2022-08-16T01:21:16.143Z,99742.38
2022-08-16T01:24:55.156Z,99738.25
2022-08-16T01:28:00.390Z,99752.63
2022-08-16T01:31:05.280Z,99741.75
2022-08-16T01:34:07.186Z,99739.81
2022-08-16T01:37:11.802Z,99737.81
2022-08-16T01:40:20.596Z,99735.00
2022-08-16T01:43:23.832Z,99732.44
2022-08-16T01:46:40.148Z,99740.63
2022-08-16T01:50:42.963Z,99733.72
2022-08-16T01:53:17.692Z,99732.97
2022-08-16T01:56:37.565Z,99735.91
2022-08-16T01:59:39.649Z,99737.03
2022-08-16T02:02:43.163Z,99737.44
2022-08-16T02:05:46.763Z,99731.78
2022-08-16T02:08:55.052Z,99736.16
2022-08-16T02:11:59.369Z,99725.97
2022-08-16T02:15:27.025Z,99732.88
2022-08-16T02:18:30.226Z,99734.84
2022-08-16T02:21:33.654Z,99735.94
2022-08-16T02:24:41.331Z,99736.47
2022-08-16T02:27:50.790Z,99735.16
2022-08-16T02:30:55.669Z,99742.06
2022-08-16T02:33:57.213Z,99740.88
2022-08-16T02:37:08.697Z,99734.66
2022-08-16T02:40:12.089Z,99737.00
2022-08-16T02:43:17.760Z,99734.34
2022-08-16T02:46:20.145Z,99731.19
2022-08-16T02:49:58.007Z,99732.31
2022-08-16T02:52:54.793Z,99728.59
2022-08-16T02:55:57.833Z,99728.25
2022-08-16T02:59:01.298Z,99729.84
2022-08-16T03:02:08.252Z,99727.75
2022-08-16T03:05:13.374Z,99713.63
2022-08-16T03:08:51.148Z,99716.47
2022-08-16T03:11:39.784Z,99714.34
2022-08-16T03:14:41.248Z,99708.16
2022-08-16T03:17:53.188Z,99711.94
2022-08-16T03:20:56.764Z,99708.94
2022-08-16T03:23:58.573Z,99710.50
2022-08-16T03:27:02.889Z,99703.34
2022-08-16T03:30:15.974Z,99692.75
2022-08-16T03:33:20.710Z,99697.00
2022-08-16T03:36:32.783Z,99702.88
2022-08-16T03:39:42.809Z,99705.22
2022-08-16T03:43:18.778Z,99703.66
2022-08-16T03:46:07.280Z,99710.00
2022-08-16T03:49:13.267Z,99708.56
2022-08-16T03:52:16.538Z,99711.97
2022-08-16T03:55:18.344Z,99710.28
2022-08-16T03:58:22.165Z,99696.06
2022-08-16T04:01:29.275Z,99705.66
2022-08-16T04:04:33.992Z,99703.59
2022-08-16T04:07:38.745Z,99697.69
2022-08-16T04:10:41.029Z,99696.72
2022-08-16T04:14:00.236Z,99692.56
2022-08-16T04:17:09.985Z,99702.53
2022-08-16T04:20:31.700Z,99699.22
2022-08-16T04:23:38.827Z,99710.16
2022-08-16T04:26:46.301Z,99708.78
2022-08-16T04:29:52.140Z,99708.78
2022-08-16T04:32:55.716Z,99714.16
2022-08-16T04:35:58.790Z,99719.50
2022-08-16T04:39:01.717Z,99724.72
2022-08-16T04:42:11.237Z,99725.06
2022-08-16T04:45:15.031Z,99724.34
2022-08-16T04:48:28.250Z,99729.69
2022-08-16T04:51:35.799Z,99733.34
2022-08-16T04:54:37.757Z,99736.41
2022-08-16T04:57:45.328Z,99739.59
2022-08-16T05:00:55.367Z,99738.63
2022-08-16T05:04:00.569Z,99743.47
2022-08-16T05:07:20.431Z,99749.00
2022-08-16T05:10:39.681Z,99753.03
2022-08-16T05:13:45.835Z,99753.03
2022-08-16T05:16:52.859Z,99761.81
2022-08-16T05:19:58.376Z,99761.19
2022-08-16T05:23:04.385Z,99754.47
2022-08-16T05:26:19.583Z,99761.13
2022-08-16T05:29:22.081Z,99757.13
2022-08-16T05:32:45.581Z,99759.88
2022-08-16T05:35:54.764Z,99765.63
2022-08-16T05:39:13.071Z,99765.88
2022-08-16T05:42:15.900Z,99766.88
2022-08-16T05:45:22.154Z,99775.47
2022-08-16T05:48:27.441Z,99773.47
2022-08-16T05:51:40.271Z,99772.09
2022-08-16T05:54:47.243Z,99775.22
2022-08-16T05:57:52.484Z,99775.75
2022-08-16T06:00:56.010Z,99775.22
2022-08-16T06:03:59.361Z,99774.31
2022-08-16T06:07:24.279Z,99775.63
2022-08-16T06:10:33.192Z,99780.31
2022-08-16T06:13:37.771Z,99775.91
2022-08-16T06:16:45.078Z,99772.66
2022-08-16T06:19:52.808Z,99788.66
2022-08-16T06:22:58.781Z,99781.72
2022-08-16T06:26:15.569Z,99779.06
2022-08-16T06:29:20.879Z,99781.50
2022-08-16T06:32:27.735Z,99787.03
2022-08-16T06:35:40.459Z,99796.94
2022-08-16T06:38:55.907Z,99791.94
2022-08-16T06:42:09.712Z,99791.44
2022-08-16T06:45:25.039Z,99804.72
2022-08-16T06:48:42.900Z,99792.31
2022-08-16T06:51:48.379Z,99793.75
2022-08-16T06:54:57.441Z,99795.69
2022-08-16T06:58:00.841Z,99801.63
2022-08-16T07:01:03.283Z,99797.66
2022-08-16T07:04:12.476Z,99797.81
2022-08-16T07:07:14.943Z,99794.44
2022-08-16T07:10:19.436Z,99798.97
2022-08-16T07:14:03.806Z,99799.53
2022-08-16T07:16:49.223Z,99795.13
2022-08-16T07:20:03.649Z,99803.66
2022-08-16T07:23:21.413Z,99802.22
2022-08-16T07:26:40.350Z,99798.94
2022-08-16T07:29:50.037Z,99799.16
2022-08-16T07:32:57.441Z,99802.06
2022-08-16T07:35:59.626Z,99798.41
2022-08-16T07:39:02.079Z,99788.13
2022-08-16T07:42:08.563Z,99784.91
2022-08-16T07:45:11.518Z,99793.97
2022-08-16T07:48:19.316Z,99790.22
2022-08-16T07:51:25.908Z,99796.56
2022-08-16T07:54:37.813Z,99799.53
2022-08-16T07:57:59.765Z,99790.56
2022-08-16T08:01:10.741Z,99799.00
2022-08-16T08:04:18.495Z,99801.53
2022-08-16T08:07:21.037Z,99809.91
2022-08-16T08:10:29.747Z,99805.31
2022-08-16T08:13:42.470Z,99805.63
2022-08-16T08:16:45.679Z,99812.84
2022-08-16T08:19:56.468Z,99817.78
2022-08-16T08:23:00.081Z,99819.66
2022-08-16T08:26:09.894Z,99820.31
2022-08-16T08:29:23.038Z,99813.41
2022-08-16T08:32:58.593Z,99818.41
2022-08-16T08:35:50.794Z,99813.59
2022-08-16T08:38:53.338Z,99815.75
2022-08-16T08:41:56.900Z,99813.41
2022-08-16T08:44:59.390Z,99817.66
2022-08-16T08:48:00.918Z,99822.28
2022-08-16T08:51:09.221Z,99821.03
2022-08-16T08:54:21.403Z,99821.03
2022-08-16T08:57:27.962Z,99819.63
2022-08-16T09:00:50.183Z,99823.69
2022-08-16T09:03:53.086Z,99824.72
2022-08-16T09:06:56.543Z,99826.03
2022-08-16T09:10:06.717Z,99818.53
2022-08-16T09:13:24.449Z,99824.19
2022-08-16T09:17:03.893Z,99821.38
2022-08-16T09:19:50.305Z,99821.94
2022-08-16T09:22:57.464Z,99827.78
2022-08-16T09:26:45.414Z,99831.19
2022-08-16T09:29:45.209Z,99822.06
2022-08-16T09:32:49.702Z,99826.56
2022-08-16T09:35:53.240Z,99828.38
2022-08-16T09:38:59.582Z,99828.59
2022-08-16T09:42:02.913Z,99829.09
2022-08-16T09:45:11.776Z,99829.34
2022-08-16T09:48:37.203Z,99834.50
2022-08-16T09:51:40.600Z,99836.50
2022-08-16T09:54:44.661Z,99838.84
2022-08-16T09:57:52.952Z,99826.69
2022-08-16T10:00:55.215Z,99822.00
2022-08-16T10:04:01.602Z,99824.88
2022-08-16T10:07:11.887Z,99823.69
2022-08-16T10:10:18.811Z,99808.63
2022-08-16T10:13:34.326Z,99819.50
2022-08-16T10:16:36.705Z,99811.69
2022-08-16T10:19:40.582Z,99814.53
2022-08-16T10:22:44.665Z,99823.44
2022-08-16T10:27:17.190Z,99811.22
2022-08-16T10:29:08.497Z,99805.78
2022-08-16T10:32:09.913Z,99801.81
2022-08-16T10:35:11.468Z,99809.91
2022-08-16T10:38:27.291Z,99809.16
2022-08-16T10:41:29.757Z,99805.13
2022-08-16T10:44:31.265Z,99799.69
2022-08-16T10:47:38.745Z,99808.38
2022-08-16T10:50:40.499Z,99802.66
2022-08-16T10:53:42.203Z,99802.66
2022-08-16T10:56:55.456Z,99799.09
2022-08-16T10:59:58.692Z,99807.44
2022-08-16T11:03:04.123Z,99806.94
2022-08-16T11:06:11.984Z,99806.94
2022-08-16T11:09:25.313Z,99800.38
2022-08-16T11:12:30.221Z,99803.94
2022-08-16T11:15:34.477Z,99810.16
2022-08-16T11:19:03.547Z,99800.97
2022-08-16T11:22:23.185Z,99801.63
2022-08-16T11:32:10.407Z,99808.84
2022-08-16T11:35:43.364Z,99810.09
2022-08-16T11:38:51.553Z,99796.22
2022-08-16T11:41:59.324Z,99801.97
2022-08-16T11:45:00.813Z,99803.44
2022-08-16T11:48:04.773Z,99795.75
2022-08-16T11:51:06.443Z,99803.38
2022-08-16T11:54:09.043Z,99801.00
2022-08-16T11:57:23.344Z,99800.16
2022-08-16T12:00:49.729Z,99798.63
2022-08-16T12:03:48.370Z,99796.47
2022-08-16T12:06:50.398Z,99794.75
2022-08-16T12:09:55.846Z,99792.47
2022-08-16T12:12:57.991Z,99784.56
2022-08-16T12:16:04.843Z,99790.16
2022-08-16T12:19:10.566Z,99788.19
2022-08-16T12:22:19.292Z,99784.97
2022-08-16T12:25:24.067Z,99776.75
2022-08-16T12:28:55.045Z,99781.94
2022-08-16T12:32:00.434Z,99779.69
2022-08-16T12:35:15.372Z,99779.88
2022-08-16T12:38:40.940Z,99782.09
2022-08-16T12:41:39.461Z,99781.75
2022-08-16T12:44:46.698Z,99776.44
2022-08-16T12:48:32.904Z,99771.06
2022-08-16T12:51:57.744Z,99766.16
2022-08-16T12:54:56.313Z,99766.50
2022-08-16T12:58:00.459Z,99761.91
2022-08-16T13:01:02.328Z,99754.19
2022-08-16T13:04:20.252Z,99761.25
2022-08-16T13:07:27.190Z,99759.88
2022-08-16T13:10:36.960Z,99751.66
2022-08-16T13:13:39.778Z,99749.59
2022-08-16T13:16:42.200Z,99743.38
2022-08-16T13:23:11.426Z,99741.88
2022-08-16T13:26:12.914Z,99739.06
2022-08-16T13:29:19.326Z,99740.09
2022-08-16T13:32:40.624Z,99743.66
2022-08-16T13:35:44.293Z,99742.97
2022-08-16T13:38:47.612Z,99736.47
2022-08-16T13:41:53.896Z,99729.94
2022-08-16T13:44:58.083Z,99733.13
2022-08-16T13:47:59.929Z,99740.38
2022-08-16T13:51:07.378Z,99723.66
2022-08-16T13:54:09.193Z,99725.00
2022-08-16T13:57:11.724Z,99722.53
2022-08-16T14:00:19.584Z,99724.63
2022-08-16T14:03:23.886Z,99726.88
2022-08-16T14:06:25.444Z,99721.00
2022-08-16T14:09:31.988Z,99728.69
2022-08-16T14:12:34.666Z,99720.50
2022-08-16T14:15:37.481Z,99717.34
2022-08-16T14:18:43.419Z,99713.34
2022-08-16T14:21:56.356Z,99711.94
2022-08-16T14:25:11.736Z,99707.56
2022-08-16T14:28:18.869Z,99703.66
2022-08-16T14:31:27.622Z,99705.75
2022-08-16T14:34:29.968Z,99701.47
2022-08-16T14:37:32.735Z,99713.38
2022-08-16T14:40:35.215Z,99711.59
2022-08-16T14:43:37.475Z,99704.81
2022-08-16T14:46:38.894Z,99703.09
2022-08-16T14:49:41.337Z,99695.56
2022-08-16T14:52:56.498Z,99696.47
2022-08-16T14:55:58.906Z,99693.38
2022-08-16T14:59:00.962Z,99694.22
2022-08-16T15:02:04.148Z,99692.16
2022-08-16T15:05:08.598Z,99699.66
2022-08-16T15:08:11.123Z,99696.13
2022-08-16T15:11:12.585Z,99688.97
2022-08-16T15:14:14.086Z,99693.19
2022-08-16T15:17:15.714Z,99686.03
2022-08-16T15:20:18.208Z,99686.47
2022-08-16T15:23:19.825Z,99688.38
2022-08-16T15:26:29.640Z,99682.28
2022-08-16T15:29:43.802Z,99689.16
2022-08-16T15:32:46.881Z,99688.34
2022-08-16T15:35:52.519Z,99690.25
2022-08-16T15:39:05.781Z,99695.09
2022-08-16T15:42:28.754Z,99701.56
2022-08-16T15:45:53.667Z,99691.50
2022-08-16T15:48:57.575Z,99697.78
2022-08-16T15:52:01.129Z,99703.84
2022-08-16T15:55:23.654Z,99697.38
2022-08-16T15:58:35.167Z,99696.97
2022-08-16T16:01:40.185Z,99695.25
2022-08-16T16:04:41.872Z,99693.56
2022-08-16T16:07:56.660Z,99690.22
2022-08-16T16:11:01.073Z,99693.97
2022-08-16T16:14:06.307Z,99694.53
2022-08-16T16:17:11.332Z,99685.22
2022-08-16T16:20:19.481Z,99689.41
2022-08-16T16:23:24.816Z,99682.84
2022-08-16T16:26:26.718Z,99676.66
2022-08-16T16:29:28.446Z,99675.56
2022-08-16T16:32:38.833Z,99683.13
2022-08-16T16:35:41.851Z,99676.81
2022-08-16T16:38:50.084Z,99672.59
2022-08-16T16:41:52.023Z,99681.00
2022-08-16T16:44:56.401Z,99681.84
2022-08-16T16:48:12.481Z,99681.81
2022-08-16T16:51:15.435Z,99673.34
2022-08-16T16:54:25.581Z,99673.72
2022-08-16T16:57:48.061Z,99677.00
2022-08-16T17:00:51.852Z,99671.22
2022-08-16T17:04:00.161Z,99668.31
2022-08-16T17:07:01.958Z,99671.06
2022-08-16T17:10:05.057Z,99673.59
2022-08-16T17:13:07.593Z,99665.75
2022-08-16T17:16:18.454Z,99667.88
2022-08-16T17:19:20.650Z,99664.53
2022-08-16T17:22:23.817Z,99670.06
2022-08-16T17:25:36.247Z,99674.22
2022-08-16T17:29:00.174Z,99667.16
2022-08-16T17:32:02.416Z,99672.25
2022-08-16T17:35:34.156Z,99661.63
2022-08-16T17:38:43.909Z,99671.03
2022-08-16T17:41:46.005Z,99671.69
2022-08-16T17:44:47.516Z,99672.47
2022-08-16T17:47:50.001Z,99672.38
2022-08-16T17:50:54.862Z,99670.63
2022-08-16T17:53:56.673Z,99679.16
2022-08-16T17:57:00.801Z,99677.13
2022-08-16T18:00:07.479Z,99678.50
2022-08-16T18:03:17.270Z,99676.94
2022-08-16T18:06:39.813Z,99680.09
2022-08-16T18:09:42.055Z,99677.38
2022-08-16T18:12:54.261Z,99684.34
2022-08-16T18:15:57.709Z,99672.09
2022-08-16T18:19:00.022Z,99677.84
2022-08-16T18:22:20.050Z,99678.53
2022-08-16T18:25:21.672Z,99679.28
2022-08-16T18:28:24.754Z,99686.78
2022-08-16T18:31:26.678Z,99672.16
2022-08-16T18:34:28.155Z,99679.66
2022-08-16T18:37:29.571Z,99679.66
2022-08-16T18:40:35.127Z,99670.88
2022-08-16T18:44:24.342Z,99676.69
2022-08-16T18:46:58.001Z,99685.13
2022-08-16T18:49:59.697Z,99689.06
2022-08-16T18:53:05.255Z,99687.41
2022-08-16T18:56:06.852Z,99686.91
2022-08-16T18:59:08.565Z,99690.22
2022-08-16T19:02:09.994Z,99690.97
2022-08-16T19:05:33.963Z,99696.44
2022-08-16T19:08:35.712Z,99707.44
2022-08-16T19:11:37.153Z,99711.34
2022-08-16T19:14:38.584Z,99708.53
2022-08-16T19:17:39.996Z,99706.97
2022-08-16T19:20:44.020Z,99702.06
2022-08-16T19:23:45.611Z,99707.06
2022-08-16T19:26:47.077Z,99709.38
2022-08-16T19:29:49.138Z,99706.19
2022-08-16T19:32:50.840Z,99705.13
2022-08-16T19:35:52.413Z,99721.78
2022-08-16T19:38:53.860Z,99723.22
2022-08-16T19:41:55.477Z,99730.34
2022-08-16T19:44:59.205Z,99735.78
2022-08-16T19:48:03.549Z,99728.88
2022-08-16T19:51:05.430Z,99726.25
2022-08-16T19:54:06.836Z,99725.63
2022-08-16T19:57:08.397Z,99728.84
2022-08-16T20:00:14.537Z,99729.53
2022-08-16T20:03:21.933Z,99733.94
2022-08-16T20:06:37.922Z,99733.81
2022-08-16T20:09:40.662Z,99736.97
2022-08-16T20:12:43.324Z,99740.72
2022-08-16T20:16:04.063Z,99756.09
2022-08-16T20:19:05.548Z,99744.91
2022-08-16T20:22:52.055Z,99747.47
2022-08-16T20:25:49.883Z,99751.53
2022-08-16T20:28:53.947Z,99759.28
2022-08-16T20:31:56.526Z,99757.78
2022-08-16T20:34:58.272Z,99751.88
2022-08-16T20:38:01.657Z,99748.31
2022-08-16T20:41:03.268Z,99759.97
2022-08-16T20:44:04.668Z,99754.88
2022-08-16T20:47:10.195Z,99755.50
2022-08-16T20:50:11.723Z,99763.56
2022-08-16T20:53:13.127Z,99768.09
2022-08-16T20:56:14.571Z,99767.72
2022-08-16T20:59:16.194Z,99773.25
2022-08-16T21:02:24.002Z,99761.78
2022-08-16T21:05:31.009Z,99771.66
2022-08-16T21:08:52.369Z,99772.47
2022-08-16T21:11:56.912Z,99771.09
2022-08-16T21:15:02.502Z,99774.59
2022-08-16T21:18:04.996Z,99769.50
2022-08-16T21:21:06.601Z,99775.03
2022-08-16T21:24:08.072Z,99768.56
2022-08-16T21:27:10.125Z,99777.00
2022-08-16T21:30:12.714Z,99773.09
2022-08-16T21:33:19.666Z,99777.25
2022-08-16T21:36:35.516Z,99780.00
2022-08-16T21:39:37.867Z,99772.09
2022-08-16T21:42:41.736Z,99770.31
2022-08-16T21:45:44.568Z,99775.09
2022-08-16T21:48:46.038Z,99772.66
2022-08-16T21:51:47.462Z,99777.91
2022-08-16T21:54:50.357Z,99777.91
2022-08-16T21:57:55.504Z,99769.75
2022-08-16T22:00:57.006Z,99777.69
2022-08-16T22:04:35.712Z,99769.91
2022-08-16T22:07:20.474Z,99779.84
2022-08-16T22:11:06.872Z,99782.16
2022-08-16T22:13:58.322Z,99776.06
2022-08-16T22:17:00.880Z,99780.09
2022-08-16T22:20:05.138Z,99781.22
2022-08-16T22:23:13.552Z,99778.63
2022-08-16T22:26:15.666Z,99783.59
2022-08-16T22:29:17.114Z,99773.69
2022-08-16T22:32:18.526Z,99767.53
2022-08-16T22:35:19.985Z,99764.75
2022-08-16T22:38:54.195Z,99768.06
2022-08-16T22:41:45.488Z,99769.69
2022-08-16T22:44:47.322Z,99771.16
2022-08-16T22:47:49.025Z,99774.25
2022-08-16T22:50:51.344Z,99777.16
2022-08-16T22:53:53.291Z,99773.03
2022-08-16T22:56:57.240Z,99778.59
2022-08-16T22:59:58.657Z,99784.50
2022-08-16T23:03:13.894Z,99786.03
2022-08-16T23:06:16.770Z,99785.81
2022-08-16T23:09:18.290Z,99783.59
2022-08-16T23:12:19.730Z,99787.53
2022-08-16T23:15:39.412Z,99775.25
2022-08-16T23:18:41.529Z,99767.19
2022-08-16T23:21:46.451Z,99774.09
2022-08-16T23:24:56.258Z,99779.63
2022-08-16T23:27:58.320Z,99777.34
2022-08-16T23:30:59.913Z,99780.31
2022-08-16T23:34:01.901Z,99773.94
2022-08-16T23:37:03.429Z,99774.00
2022-08-16T23:40:06.865Z,99773.00
2022-08-16T23:43:12.914Z,99766.22
2022-08-16T23:46:17.876Z,99770.28
2022-08-16T23:49:56.774Z,99756.22
2022-08-16T23:53:14.756Z,99752.50
2022-08-16T23:56:19.657Z,99747.00
2022-08-16T23:59:21.071Z,99740.19
